Time;durP1;ratioP1;P1;durP2;ratioP2;P2;SDS_P1;SDS_P2;PMS_P1;PMS_P2;Temp;Humidity;BMP_temperature;BMP_pressure;BME280_temperature;BME280_humidity;BME280_pressure;Samples;Min_cycle;Max_cycle;Signal;HPM_P1;HPM_P2
2022/01/05 00:00:43;;;;;;;;;1.00;1.00;;;;;;;;5051523;28;45723;-72
2022/01/05 00:03:09;;;;;;;;;1.00;0.00;;;;;;;;5050786;28;45902;-70
2022/01/05 00:05:34;;;;;;;;;1.75;1.75;;;;;;;;5030530;28;45584;-69
2022/01/05 00:08:00;;;;;;;;;4.25;2.75;;;;;;;;5045172;28;45715;-72
2022/01/05 00:10:25;;;;;;;;;1.25;0.50;;;;;;;;5049069;28;46113;-73
2022/01/05 00:12:50;;;;;;;;;1.00;1.00;;;;;;;;5030967;28;45600;-70
2022/01/05 00:15:15;;;;;;;;;6.25;1.25;;;;;;;;5032257;28;45645;-71
2022/01/05 00:17:41;;;;;;;;;0.50;0.50;;;;;;;;5049250;28;45539;-70
2022/01/05 00:20:06;;;;;;;;;1.00;1.00;;;;;;;;5049599;28;46574;-71
2022/01/05 00:22:32;;;;;;;;;2.00;2.00;;;;;;;;5032346;28;45570;-71
2022/01/05 00:24:57;;;;;;;;;4.50;2.75;;;;;;;;5030898;28;45497;-71
2022/01/05 00:27:22;;;;;;;;;1.75;1.00;;;;;;;;5065759;28;45716;-71
2022/01/05 00:29:47;;;;;;;;;2.00;1.50;;;;;;;;5031204;28;47678;-72
2022/01/05 00:32:13;;;;;;;;;1.00;0.50;;;;;;;;5032168;28;45784;-71
2022/01/05 00:34:38;;;;;;;;;1.25;1.25;;;;;;;;5050785;28;45606;-71
2022/01/05 00:37:04;;;;;;;;;1.00;1.00;;;;;;;;5031784;28;45785;-71
2022/01/05 00:39:29;;;;;;;;;5.00;1.25;;;;;;;;5046935;28;45623;-72
2022/01/05 00:41:54;;;;;;;;;5.75;2.00;;;;;;;;5030631;28;46098;-72
2022/01/05 00:44:19;;;;;;;;;5.25;3.00;;;;;;;;5032071;28;45791;-72
2022/01/05 00:46:45;;;;;;;;;5.00;1.75;;;;;;;;5043395;28;45478;-72
2022/01/05 00:49:11;;;;;;;;;1.00;1.00;;;;;;;;5029770;28;48351;-74
2022/01/05 00:51:36;;;;;;;;;1.25;1.25;;;;;;;;5048733;28;45491;-73
2022/01/05 00:54:02;;;;;;;;;1.00;1.00;;;;;;;;5064822;28;46015;-72
2022/01/05 00:56:27;;;;;;;;;2.00;1.00;;;;;;;;5050083;28;45350;-72
2022/01/05 00:58:52;;;;;;;;;4.00;2.75;;;;;;;;5031297;28;48564;-74
2022/01/05 01:01:17;;;;;;;;;1.25;0.75;;;;;;;;5057268;28;45742;-73
2022/01/05 01:03:43;;;;;;;;;3.25;2.50;;;;;;;;5037667;28;45546;-71
2022/01/05 01:06:08;;;;;;;;;3.50;1.75;;;;;;;;5054066;28;45938;-70
2022/01/05 01:08:33;;;;;;;;;5.00;3.00;;;;;;;;5050499;28;46409;-71
2022/01/05 01:10:58;;;;;;;;;4.50;2.00;;;;;;;;5031632;28;45912;-73
2022/01/05 01:13:24;;;;;;;;;2.50;1.25;;;;;;;;5029517;28;45670;-72
2022/01/05 01:15:50;;;;;;;;;2.25;1.00;;;;;;;;5048173;28;45466;-71
2022/01/05 01:18:15;;;;;;;;;1.00;1.00;;;;;;;;5044482;28;45491;-71
2022/01/05 01:20:41;;;;;;;;;1.00;1.00;;;;;;;;5030067;28;45893;-72
2022/01/05 01:23:06;;;;;;;;;2.00;2.00;;;;;;;;5048730;28;45564;-71
2022/01/05 01:25:32;;;;;;;;;1.50;1.00;;;;;;;;5048409;28;45620;-70
2022/01/05 01:27:57;;;;;;;;;1.00;1.00;;;;;;;;5049885;28;46673;-71
2022/01/05 01:30:22;;;;;;;;;2.00;2.00;;;;;;;;5049979;28;45496;-71
2022/01/05 01:32:47;;;;;;;;;1.25;1.25;;;;;;;;5049889;28;45895;-71
2022/01/05 01:35:13;;;;;;;;;3.50;2.00;;;;;;;;5049550;28;45639;-72
2022/01/05 01:37:38;;;;;;;;;3.50;1.75;;;;;;;;5049597;28;45802;-71
2022/01/05 01:40:05;;;;;;;;;2.00;2.00;;;;;;;;5049839;28;45536;-70
2022/01/05 01:42:30;;;;;;;;;2.00;2.00;;;;;;;;5030911;28;45449;-72
2022/01/05 01:44:55;;;;;;;;;1.00;1.00;;;;;;;;5030971;28;45861;-72
2022/01/05 01:47:21;;;;;;;;;1.50;1.50;;;;;;;;5030989;28;47525;-72
2022/01/05 01:49:47;;;;;;;;;2.50;2.00;;;;;;;;5030991;28;45533;-70
2022/01/05 01:52:12;;;;;;;;;1.75;1.75;;;;;;;;5049004;28;45397;-72
2022/01/05 01:54:38;;;;;;;;;3.00;2.00;;;;;;;;5049824;28;45815;-71
2022/01/05 01:57:03;;;;;;;;;3.50;1.75;;;;;;;;5049570;28;45806;-72
2022/01/05 01:59:28;;;;;;;;;3.50;2.00;;;;;;;;5064984;28;45503;-69
2022/01/05 02:01:54;;;;;;;;;3.25;1.75;;;;;;;;5050059;28;45775;-69
2022/01/05 02:04:19;;;;;;;;;5.00;2.00;;;;;;;;5032590;28;45478;-71
2022/01/05 02:06:45;;;;;;;;;2.25;1.25;;;;;;;;5049635;28;45948;-70
2022/01/05 02:09:10;;;;;;;;;2.00;1.75;;;;;;;;5049348;28;45640;-69
2022/01/05 02:11:37;;;;;;;;;2.25;1.50;;;;;;;;5065223;28;45624;-70
2022/01/05 02:14:02;;;;;;;;;3.00;2.00;;;;;;;;5031070;28;45440;-72
2022/01/05 02:16:31;;;;;;;;;1.00;1.00;;;;;;;;5049701;28;45585;-72
2022/01/05 02:18:59;;;;;;;;;2.00;1.00;;;;;;;;5031171;28;45679;-72
2022/01/05 02:21:35;;;;;;;;;0.50;0.50;;;;;;;;5031255;28;45402;-72
2022/01/05 02:24:01;;;;;;;;;1.25;1.25;;;;;;;;5049106;28;45770;-71
2022/01/05 02:26:27;;;;;;;;;1.50;0.25;;;;;;;;5049375;28;46091;-73
2022/01/05 02:28:52;;;;;;;;;2.00;2.00;;;;;;;;5031275;28;45741;-71
2022/01/05 02:31:17;;;;;;;;;3.00;2.00;;;;;;;;5031982;28;45678;-73
2022/01/05 02:33:43;;;;;;;;;3.00;1.25;;;;;;;;5049422;28;45551;-70
2022/01/05 02:36:10;;;;;;;;;2.75;1.00;;;;;;;;5064643;28;47727;-73
2022/01/05 02:38:35;;;;;;;;;4.75;1.00;;;;;;;;5049703;28;45512;-72
2022/01/05 02:41:05;;;;;;;;;1.00;1.00;;;;;;;;5048853;28;45622;-71
2022/01/05 02:43:30;;;;;;;;;3.25;2.00;;;;;;;;5049732;28;45654;-72
2022/01/05 02:45:56;;;;;;;;;2.00;2.00;;;;;;;;5030595;28;46688;-71
2022/01/05 02:48:21;;;;;;;;;1.00;1.00;;;;;;;;5048900;28;45949;-71
2022/01/05 02:50:46;;;;;;;;;2.00;2.00;;;;;;;;5049346;28;45415;-71
2022/01/05 02:53:11;;;;;;;;;3.50;1.00;;;;;;;;5031108;28;45926;-71
2022/01/05 02:55:36;;;;;;;;;1.25;1.25;;;;;;;;5031892;28;47525;-73
2022/01/05 02:58:02;;;;;;;;;5.50;3.00;;;;;;;;5030545;28;50037;-72
2022/01/05 03:00:27;;;;;;;;;2.50;1.00;;;;;;;;5031119;28;45545;-72
2022/01/05 03:02:53;;;;;;;;;2.00;1.00;;;;;;;;5048238;28;45496;-70
2022/01/05 03:05:19;;;;;;;;;3.00;2.00;;;;;;;;5033814;28;47761;-71
2022/01/05 03:07:45;;;;;;;;;5.00;1.75;;;;;;;;5034344;28;46324;-71
2022/01/05 03:10:11;;;;;;;;;0.75;0.75;;;;;;;;5052451;28;46269;-69
2022/01/05 03:12:37;;;;;;;;;1.00;1.00;;;;;;;;5052244;28;45813;-71
2022/01/05 03:15:04;;;;;;;;;2.00;1.00;;;;;;;;5052297;28;46135;-72
2022/01/05 03:17:29;;;;;;;;;2.00;1.00;;;;;;;;5033448;28;46093;-72
2022/01/05 03:19:54;;;;;;;;;1.00;1.00;;;;;;;;5052386;28;45684;-70
2022/01/05 03:22:19;;;;;;;;;2.50;1.50;;;;;;;;5053012;28;45443;-71
2022/01/05 03:24:45;;;;;;;;;0.25;0.00;;;;;;;;5067411;28;48482;-69
2022/01/05 03:27:10;;;;;;;;;2.00;1.00;;;;;;;;5051722;28;45760;-70
2022/01/05 03:29:35;;;;;;;;;3.00;1.00;;;;;;;;5033496;28;47213;-71
2022/01/05 03:32:00;;;;;;;;;1.00;1.00;;;;;;;;5051924;28;45982;-70
2022/01/05 03:34:27;;;;;;;;;0.50;0.50;;;;;;;;5034423;28;47702;-70
2022/01/05 03:36:53;;;;;;;;;1.50;1.50;;;;;;;;5040340;28;45138;-71
2022/01/05 03:39:18;;;;;;;;;2.25;1.25;;;;;;;;5057759;28;45453;-69
2022/01/05 03:41:44;;;;;;;;;3.00;1.75;;;;;;;;5057202;28;45543;-69
2022/01/05 03:44:09;;;;;;;;;3.00;0.50;;;;;;;;5034224;28;47454;-70
2022/01/05 03:46:34;;;;;;;;;1.00;1.00;;;;;;;;5052077;28;45647;-70
2022/01/05 03:49:00;;;;;;;;;1.00;1.00;;;;;;;;5033498;28;45411;-69
2022/01/05 03:51:25;;;;;;;;;2.50;1.00;;;;;;;;5051293;28;45806;-72
2022/01/05 03:53:50;;;;;;;;;3.25;1.50;;;;;;;;5066733;28;47577;-69
2022/01/05 03:56:15;;;;;;;;;4.00;1.00;;;;;;;;5051462;28;45593;-72
2022/01/05 03:58:41;;;;;;;;;1.25;1.25;;;;;;;;5033918;28;45775;-72
2022/01/05 04:01:06;;;;;;;;;0.50;0.50;;;;;;;;5052019;28;45646;-70
2022/01/05 04:03:31;;;;;;;;;4.00;2.25;;;;;;;;5050985;28;46284;-70
2022/01/05 04:05:56;;;;;;;;;3.00;1.75;;;;;;;;5033005;28;46380;-70
2022/01/05 04:08:21;;;;;;;;;1.00;1.00;;;;;;;;5033220;28;45607;-72
2022/01/05 04:10:47;;;;;;;;;5.50;3.00;;;;;;;;5051237;28;45824;-70
2022/01/05 04:13:14;;;;;;;;;2.00;1.50;;;;;;;;5033315;28;47598;-71
2022/01/05 04:15:39;;;;;;;;;1.25;0.50;;;;;;;;5049984;28;45487;-71
2022/01/05 04:18:04;;;;;;;;;2.50;1.25;;;;;;;;5051131;28;45420;-71
2022/01/05 04:20:29;;;;;;;;;2.25;1.00;;;;;;;;5051653;28;45721;-71
2022/01/05 04:22:55;;;;;;;;;2.00;0.75;;;;;;;;5033176;28;47602;-71
2022/01/05 04:25:20;;;;;;;;;1.00;1.00;;;;;;;;5033201;28;45488;-70
2022/01/05 04:27:45;;;;;;;;;4.00;2.00;;;;;;;;5032306;28;45481;-69
2022/01/05 04:30:11;;;;;;;;;3.00;1.75;;;;;;;;5047907;28;45920;-71
2022/01/05 04:32:36;;;;;;;;;1.00;0.25;;;;;;;;5028949;28;47726;-73
2022/01/05 04:35:02;;;;;;;;;1.00;1.00;;;;;;;;5032096;28;45736;-68
2022/01/05 04:37:27;;;;;;;;;1.75;1.75;;;;;;;;5032734;28;45433;-70
2022/01/05 04:39:53;;;;;;;;;0.00;0.00;;;;;;;;5048307;28;45533;-70
2022/01/05 04:42:18;;;;;;;;;2.50;1.25;;;;;;;;5049597;28;45407;-72
2022/01/05 04:44:44;;;;;;;;;1.50;1.00;;;;;;;;5032325;28;46308;-69
2022/01/05 04:47:10;;;;;;;;;4.50;1.25;;;;;;;;5050487;28;45437;-66
2022/01/05 04:49:36;;;;;;;;;3.75;1.00;;;;;;;;5031308;28;45862;-71
2022/01/05 04:52:01;;;;;;;;;1.75;1.75;;;;;;;;5049728;28;46150;-71
2022/01/05 04:54:26;;;;;;;;;0.00;0.00;;;;;;;;5050630;28;45574;-71
2022/01/05 04:56:51;;;;;;;;;1.25;1.25;;;;;;;;5031726;28;45715;-71
2022/01/05 04:59:17;;;;;;;;;4.00;1.00;;;;;;;;5031755;28;45433;-71
2022/01/05 05:01:42;;;;;;;;;1.00;1.00;;;;;;;;5050566;28;46349;-70
2022/01/05 05:04:07;;;;;;;;;7.00;1.75;;;;;;;;5048601;28;45470;-72
2022/01/05 05:06:33;;;;;;;;;2.25;2.25;;;;;;;;5050437;28;45469;-72
2022/01/05 05:08:58;;;;;;;;;4.00;1.00;;;;;;;;5049922;28;45636;-71
2022/01/05 05:11:23;;;;;;;;;3.00;1.50;;;;;;;;5047673;28;46556;-72
2022/01/05 05:13:48;;;;;;;;;2.25;2.25;;;;;;;;5031114;28;45544;-71
2022/01/05 05:16:13;;;;;;;;;2.25;1.75;;;;;;;;5032625;28;45390;-71
2022/01/05 05:18:39;;;;;;;;;0.50;0.50;;;;;;;;5050216;28;45875;-72
2022/01/05 05:21:04;;;;;;;;;3.50;3.00;;;;;;;;5046808;28;45697;-72
2022/01/05 05:23:29;;;;;;;;;3.00;2.00;;;;;;;;5046186;28;45793;-71
2022/01/05 05:25:54;;;;;;;;;2.00;1.00;;;;;;;;5046662;28;45431;-71
2022/01/05 05:28:20;;;;;;;;;3.00;1.75;;;;;;;;5047545;28;45521;-70
2022/01/05 05:30:45;;;;;;;;;1.75;1.00;;;;;;;;5031254;28;48763;-70
2022/01/05 05:33:10;;;;;;;;;2.75;1.50;;;;;;;;5043602;28;45879;-71
2022/01/05 05:35:35;;;;;;;;;2.00;2.00;;;;;;;;5031350;28;45681;-72
2022/01/05 05:38:01;;;;;;;;;1.50;1.00;;;;;;;;5049382;28;47278;-70
2022/01/05 05:40:26;;;;;;;;;3.00;1.50;;;;;;;;5050137;28;45541;-70
2022/01/05 05:42:51;;;;;;;;;3.00;1.00;;;;;;;;5049134;28;45565;-70
2022/01/05 05:45:17;;;;;;;;;0.75;0.75;;;;;;;;5029611;28;46322;-68
2022/01/05 05:47:42;;;;;;;;;1.00;1.00;;;;;;;;5042008;28;45811;-72
2022/01/05 05:50:08;;;;;;;;;2.25;2.25;;;;;;;;5030375;28;49183;-72
2022/01/05 05:52:33;;;;;;;;;3.75;1.00;;;;;;;;5031658;28;46462;-73
2022/01/05 05:54:58;;;;;;;;;1.00;1.00;;;;;;;;5030672;28;45516;-73
2022/01/05 05:57:24;;;;;;;;;3.00;2.00;;;;;;;;5062009;28;45792;-71
2022/01/05 05:59:49;;;;;;;;;2.50;2.00;;;;;;;;5040860;28;46574;-70
2022/01/05 06:02:14;;;;;;;;;2.75;2.00;;;;;;;;5030501;28;45541;-70
2022/01/05 06:04:39;;;;;;;;;4.00;0.00;;;;;;;;5045514;28;45630;-70
2022/01/05 06:07:05;;;;;;;;;2.50;1.00;;;;;;;;5045146;28;45531;-71
2022/01/05 06:09:30;;;;;;;;;2.50;1.25;;;;;;;;5044965;28;45644;-71
2022/01/05 06:11:55;;;;;;;;;3.00;1.00;;;;;;;;5055746;28;45775;-71
2022/01/05 06:14:20;;;;;;;;;2.25;2.25;;;;;;;;5056606;28;45533;-71
2022/01/05 06:16:45;;;;;;;;;2.00;2.00;;;;;;;;5054658;28;45477;-70
2022/01/05 06:19:11;;;;;;;;;5.50;4.50;;;;;;;;5032004;28;47494;-71
2022/01/05 06:21:36;;;;;;;;;5.25;2.50;;;;;;;;5031073;28;45742;-72
2022/01/05 06:24:02;;;;;;;;;5.00;2.25;;;;;;;;5030810;28;45588;-70
2022/01/05 06:26:27;;;;;;;;;7.00;2.00;;;;;;;;5049135;28;45776;-73
2022/01/05 06:28:52;;;;;;;;;5.00;4.50;;;;;;;;5049671;28;46136;-71
2022/01/05 06:31:17;;;;;;;;;2.75;1.75;;;;;;;;5049030;28;46141;-71
2022/01/05 06:33:45;;;;;;;;;2.25;1.25;;;;;;;;5048693;28;45624;-72
2022/01/05 06:36:10;;;;;;;;;7.00;3.00;;;;;;;;5031167;28;45829;-71
2022/01/05 06:38:35;;;;;;;;;1.25;0.00;;;;;;;;5050206;28;46452;-71
2022/01/05 06:41:00;;;;;;;;;9.00;2.50;;;;;;;;5052491;28;45456;-73
2022/01/05 06:43:26;;;;;;;;;2.00;2.00;;;;;;;;5052899;28;45524;-70
2022/01/05 06:45:51;;;;;;;;;6.75;4.50;;;;;;;;5052548;28;45560;-71
2022/01/05 06:48:16;;;;;;;;;2.50;1.50;;;;;;;;5034357;28;46513;-71
2022/01/05 06:50:41;;;;;;;;;1.25;1.25;;;;;;;;5052739;28;45720;-71
2022/01/05 06:53:07;;;;;;;;;2.50;2.25;;;;;;;;5053079;28;45449;-71
2022/01/05 06:55:32;;;;;;;;;1.75;1.75;;;;;;;;5034913;28;45450;-71
2022/01/05 06:57:57;;;;;;;;;3.00;2.00;;;;;;;;5034244;28;47500;-72
2022/01/05 07:00:23;;;;;;;;;2.75;1.00;;;;;;;;5053113;28;45503;-76
2022/01/05 07:02:49;;;;;;;;;1.00;1.00;;;;;;;;5053530;28;45797;-79
2022/01/05 07:05:14;;;;;;;;;2.75;2.00;;;;;;;;5035612;28;45408;-73
2022/01/05 07:07:40;;;;;;;;;3.00;2.00;;;;;;;;5053424;28;45393;-75
2022/01/05 07:10:06;;;;;;;;;4.50;1.00;;;;;;;;5035037;28;45445;-76
2022/01/05 07:12:32;;;;;;;;;3.50;2.25;;;;;;;;5054111;28;45486;-74
2022/01/05 07:14:57;;;;;;;;;2.25;1.00;;;;;;;;5034442;28;45533;-76
2022/01/05 07:17:22;;;;;;;;;3.75;2.50;;;;;;;;5052306;28;46882;-76
2022/01/05 07:19:47;;;;;;;;;2.50;2.00;;;;;;;;5051864;28;45402;-75
2022/01/05 07:22:12;;;;;;;;;1.25;1.25;;;;;;;;5052561;28;45545;-81
2022/01/05 07:24:38;;;;;;;;;5.00;2.50;;;;;;;;5052034;28;45781;-82
2022/01/05 07:27:03;;;;;;;;;1.50;1.50;;;;;;;;5037162;28;46236;-78
2022/01/05 07:29:28;;;;;;;;;3.00;1.00;;;;;;;;5054927;28;45508;-79
2022/01/05 07:31:54;;;;;;;;;1.00;1.00;;;;;;;;5035047;28;45516;-76
2022/01/05 07:34:19;;;;;;;;;1.75;1.00;;;;;;;;5035878;28;45525;-77
2022/01/05 07:36:44;;;;;;;;;2.00;2.00;;;;;;;;5032351;28;48584;-79
2022/01/05 07:39:10;;;;;;;;;2.75;1.75;;;;;;;;5032904;28;45547;-79
2022/01/05 07:41:36;;;;;;;;;3.25;2.00;;;;;;;;5033833;28;45414;-78
2022/01/05 07:44:02;;;;;;;;;0.50;0.50;;;;;;;;5033502;28;45721;-78
2022/01/05 07:46:27;;;;;;;;;2.00;2.00;;;;;;;;5030624;28;45703;-79
2022/01/05 07:48:52;;;;;;;;;1.00;1.00;;;;;;;;5049481;28;45833;-77
2022/01/05 07:51:18;;;;;;;;;2.00;1.00;;;;;;;;5043206;28;45731;-77
2022/01/05 07:53:43;;;;;;;;;2.50;2.00;;;;;;;;5032876;28;45893;-75
2022/01/05 07:56:08;;;;;;;;;5.50;5.50;;;;;;;;5032851;28;47981;-77
2022/01/05 07:58:37;;;;;;;;;6.25;3.50;;;;;;;;5050306;28;45499;-75
2022/01/05 08:01:03;;;;;;;;;5.25;3.25;;;;;;;;5032625;28;45572;-75
2022/01/05 08:03:30;;;;;;;;;2.25;1.00;;;;;;;;5052264;28;46035;-79
2022/01/05 08:05:56;;;;;;;;;4.00;2.00;;;;;;;;5036343;28;47738;-78
2022/01/05 08:08:21;;;;;;;;;2.50;1.25;;;;;;;;5034218;28;46064;-79
2022/01/05 08:10:46;;;;;;;;;1.00;1.00;;;;;;;;5052447;28;45437;-76
2022/01/05 08:13:11;;;;;;;;;2.25;2.25;;;;;;;;5037789;28;45519;-74
2022/01/05 08:15:37;;;;;;;;;6.00;2.00;;;;;;;;5033235;28;48410;-76
2022/01/05 08:18:02;;;;;;;;;4.00;1.50;;;;;;;;5054287;28;45877;-77
2022/01/05 08:20:27;;;;;;;;;6.00;2.25;;;;;;;;5070112;28;45817;-75
2022/01/05 08:22:52;;;;;;;;;8.00;1.50;;;;;;;;5034200;28;45452;-75
2022/01/05 08:25:20;;;;;;;;;10.50;4.75;;;;;;;;5052390;28;46178;-76
2022/01/05 08:27:46;;;;;;;;;5.00;3.00;;;;;;;;5033889;28;45778;-79
2022/01/05 08:30:19;;;;;;;;;5.00;2.75;;;;;;;;5033499;28;45498;-81
2022/01/05 08:32:45;;;;;;;;;1.75;1.75;;;;;;;;5052157;28;45447;-77
2022/01/05 08:35:10;;;;;;;;;5.00;2.75;;;;;;;;5051104;28;46351;-76
2022/01/05 08:37:35;;;;;;;;;3.50;2.00;;;;;;;;5034444;28;45703;-80
2022/01/05 08:40:01;;;;;;;;;4.50;2.50;;;;;;;;5051948;28;48106;-77
2022/01/05 08:42:26;;;;;;;;;4.00;2.25;;;;;;;;5032313;28;46184;-76
2022/01/05 08:44:51;;;;;;;;;1.00;1.00;;;;;;;;5033460;28;46251;-77
2022/01/05 08:47:16;;;;;;;;;4.00;1.50;;;;;;;;5038508;28;45101;-73
2022/01/05 08:49:41;;;;;;;;;4.25;2.75;;;;;;;;5042075;28;44853;-76
2022/01/05 08:52:07;;;;;;;;;2.25;2.25;;;;;;;;5037632;28;45480;-75
2022/01/05 08:54:32;;;;;;;;;6.25;2.50;;;;;;;;5034654;28;48579;-75
2022/01/05 08:56:57;;;;;;;;;2.00;2.00;;;;;;;;5051650;28;45499;-74
2022/01/05 08:59:22;;;;;;;;;2.00;2.00;;;;;;;;5051664;28;46135;-76
2022/01/05 09:01:48;;;;;;;;;2.25;2.25;;;;;;;;5032595;28;45462;-78
2022/01/05 09:04:13;;;;;;;;;3.00;3.00;;;;;;;;5032948;28;47524;-77
2022/01/05 09:06:38;;;;;;;;;3.00;2.00;;;;;;;;5036829;28;45592;-75
2022/01/05 09:09:04;;;;;;;;;4.00;1.00;;;;;;;;5054655;28;45744;-78
2022/01/05 09:11:29;;;;;;;;;2.50;2.25;;;;;;;;5051329;28;45500;-81
2022/01/05 09:13:54;;;;;;;;;5.00;3.00;;;;;;;;5033279;28;47877;-77
2022/01/05 09:16:20;;;;;;;;;2.25;2.25;;;;;;;;5034022;28;45439;-78
2022/01/05 09:18:46;;;;;;;;;3.00;2.00;;;;;;;;5051166;28;45516;-76
2022/01/05 09:21:11;;;;;;;;;4.75;3.75;;;;;;;;5050843;28;45497;-73
2022/01/05 09:23:36;;;;;;;;;1.00;1.00;;;;;;;;5051113;28;45845;-77
2022/01/05 09:26:02;;;;;;;;;3.00;3.00;;;;;;;;5032060;28;46214;-75
2022/01/05 09:28:28;;;;;;;;;3.25;2.50;;;;;;;;5050371;28;45782;-76
2022/01/05 09:30:53;;;;;;;;;1.00;1.00;;;;;;;;5049716;28;45472;-76
2022/01/05 09:33:19;;;;;;;;;2.25;2.25;;;;;;;;5049458;28;45800;-76
2022/01/05 09:35:46;;;;;;;;;4.50;4.00;;;;;;;;5065386;28;46343;-74
2022/01/05 09:38:33;;;;;;;;;4.00;3.00;;;;;;;;5050643;28;45512;-73
2022/01/05 09:41:58;;;;;;;;;4.25;2.00;;;;;;;;5049428;28;45479;-76
2022/01/05 09:43:54;;;;;;;;;4.25;2.75;;;;;;;;5042629;28;45768;-74
2022/01/05 09:46:31;;;;;;;;;3.25;3.25;;;;;;;;5048348;28;45647;-76
2022/01/05 09:49:17;;;;;;;;;4.00;3.50;;;;;;;;5050408;28;45943;-77
2022/01/05 09:51:42;;;;;;;;;3.25;2.75;;;;;;;;5032098;28;45956;-77
2022/01/05 09:54:09;;;;;;;;;3.50;2.25;;;;;;;;5031230;28;47654;-78
2022/01/05 09:56:34;;;;;;;;;3.00;3.00;;;;;;;;5050351;28;45458;-75
2022/01/05 09:59:02;;;;;;;;;1.75;1.50;;;;;;;;5050329;28;45866;-76
2022/01/05 10:01:28;;;;;;;;;4.50;4.50;;;;;;;;5050586;28;45464;-76
2022/01/05 10:03:54;;;;;;;;;3.50;3.50;;;;;;;;5065154;28;46514;-76
2022/01/05 10:06:19;;;;;;;;;4.50;2.50;;;;;;;;5049730;28;45544;-78
2022/01/05 10:08:44;;;;;;;;;2.00;2.00;;;;;;;;5065763;28;45531;-78
2022/01/05 10:11:10;;;;;;;;;1.00;1.00;;;;;;;;5032002;28;45588;-77
2022/01/05 10:13:35;;;;;;;;;5.00;3.00;;;;;;;;5047820;28;46527;-76
2022/01/05 10:16:01;;;;;;;;;4.00;4.00;;;;;;;;5035918;28;45870;-77
2022/01/05 10:18:37;;;;;;;;;1.50;1.50;;;;;;;;5035378;28;45453;-76
2022/01/05 10:21:05;;;;;;;;;2.00;2.00;;;;;;;;5035378;28;46004;-77
2022/01/05 10:23:35;;;;;;;;;3.00;2.00;;;;;;;;5052924;28;45559;-74
2022/01/05 10:26:19;;;;;;;;;1.75;1.75;;;;;;;;5034964;28;45664;-77
2022/01/05 10:28:47;;;;;;;;;2.00;2.00;;;;;;;;5050153;28;45414;-76
2022/01/05 10:31:13;;;;;;;;;4.75;2.00;;;;;;;;5034500;28;45510;-76
2022/01/05 10:33:39;;;;;;;;;2.00;2.00;;;;;;;;5052543;28;45603;-74
2022/01/05 10:36:04;;;;;;;;;2.25;2.25;;;;;;;;5052986;28;45488;-73
2022/01/05 10:38:29;;;;;;;;;5.00;2.00;;;;;;;;5035107;28;47169;-75
2022/01/05 10:40:54;;;;;;;;;2.25;2.25;;;;;;;;5053378;28;45932;-75
2022/01/05 10:43:20;;;;;;;;;3.50;2.50;;;;;;;;5053706;28;45473;-77
2022/01/05 10:45:46;;;;;;;;;2.00;2.00;;;;;;;;5035065;28;45492;-76
2022/01/05 10:48:14;;;;;;;;;1.00;1.00;;;;;;;;5035302;28;45588;-78
2022/01/05 10:50:41;;;;;;;;;5.00;2.00;;;;;;;;5053350;28;45756;-79
2022/01/05 10:53:08;;;;;;;;;4.00;3.50;;;;;;;;5055550;28;45737;-78
2022/01/05 10:55:38;;;;;;;;;3.75;2.00;;;;;;;;5054266;28;45437;-76
2022/01/05 10:58:04;;;;;;;;;4.75;2.50;;;;;;;;5052826;28;45425;-76
2022/01/05 11:00:38;;;;;;;;;2.00;2.00;;;;;;;;5053280;28;45905;-75
2022/01/05 11:03:19;;;;;;;;;2.00;2.00;;;;;;;;5037873;28;47677;-76
2022/01/05 11:05:58;;;;;;;;;1.75;0.50;;;;;;;;5039663;28;47585;-77
2022/01/05 11:08:24;;;;;;;;;2.00;0.50;;;;;;;;5035914;28;45498;-77
2022/01/05 11:10:49;;;;;;;;;2.50;2.50;;;;;;;;5035485;28;45434;-76
2022/01/05 11:13:14;;;;;;;;;4.50;3.00;;;;;;;;5030542;28;47366;-78
2022/01/05 11:15:39;;;;;;;;;6.75;4.50;;;;;;;;5050391;28;45472;-76
2022/01/05 11:18:11;;;;;;;;;4.25;2.00;;;;;;;;5034259;28;45482;-73
2022/01/05 11:20:57;;;;;;;;;3.00;2.00;;;;;;;;5046526;28;45512;-73
2022/01/05 11:23:23;;;;;;;;;0.25;0.25;;;;;;;;5038826;28;45649;-74
2022/01/05 11:25:48;;;;;;;;;2.50;2.00;;;;;;;;5053154;28;45422;-73
2022/01/05 11:28:16;;;;;;;;;2.00;2.00;;;;;;;;5034612;28;45537;-75
2022/01/05 11:30:42;;;;;;;;;4.25;2.50;;;;;;;;5048959;28;46081;-73
2022/01/05 11:33:07;;;;;;;;;1.50;1.50;;;;;;;;5048323;28;47228;-74
2022/01/05 11:35:33;;;;;;;;;4.00;3.00;;;;;;;;5051613;28;45469;-73
2022/01/05 11:37:59;;;;;;;;;1.50;1.00;;;;;;;;5048582;28;45597;-75
2022/01/05 11:40:24;;;;;;;;;4.00;2.00;;;;;;;;5034559;28;45564;-75
2022/01/05 11:42:51;;;;;;;;;3.00;2.75;;;;;;;;5045196;28;45778;-76
2022/01/05 11:45:32;;;;;;;;;3.25;2.75;;;;;;;;5033622;28;45715;-74
2022/01/05 11:48:16;;;;;;;;;2.50;2.00;;;;;;;;5032831;28;45651;-78
2022/01/05 11:50:46;;;;;;;;;3.00;2.25;;;;;;;;5033237;28;45493;-75
2022/01/05 11:53:12;;;;;;;;;2.75;2.75;;;;;;;;5035782;28;45728;-74
2022/01/05 11:55:57;;;;;;;;;1.75;0.00;;;;;;;;5033692;28;45864;-76
2022/01/05 11:58:25;;;;;;;;;2.50;2.50;;;;;;;;5050809;28;45580;-75
2022/01/05 12:01:26;;;;;;;;;5.00;3.25;;;;;;;;5051516;28;45445;-75
2022/01/05 12:03:57;;;;;;;;;2.00;2.00;;;;;;;;5007791;28;45624;-75
2022/01/05 12:06:24;;;;;;;;;4.25;3.00;;;;;;;;4989335;28;45431;-74
2022/01/05 12:08:53;;;;;;;;;2.00;2.00;;;;;;;;5001412;28;45625;-74
2022/01/05 12:11:39;;;;;;;;;4.00;3.00;;;;;;;;4986244;28;46184;-75
2022/01/05 12:14:06;;;;;;;;;3.00;3.00;;;;;;;;5000050;28;46447;-73
2022/01/05 12:16:51;;;;;;;;;3.00;1.75;;;;;;;;4989001;28;45459;-76
2022/01/05 12:19:17;;;;;;;;;3.75;2.25;;;;;;;;4992099;28;45529;-74
2022/01/05 12:21:44;;;;;;;;;2.75;2.00;;;;;;;;4999814;28;47924;-73
2022/01/05 12:24:09;;;;;;;;;1.50;1.50;;;;;;;;4990021;28;48028;-74
2022/01/05 12:26:34;;;;;;;;;4.50;3.00;;;;;;;;5007644;28;46322;-77
2022/01/05 12:28:59;;;;;;;;;3.00;2.00;;;;;;;;5009073;28;46128;-80
2022/01/05 12:31:44;;;;;;;;;3.50;1.75;;;;;;;;4989636;28;45927;-75
2022/01/05 12:34:09;;;;;;;;;2.00;2.00;;;;;;;;5003261;28;45572;-72
2022/01/05 12:36:35;;;;;;;;;2.25;2.25;;;;;;;;5009616;28;46051;-78
2022/01/05 12:39:05;;;;;;;;;4.75;3.00;;;;;;;;5064733;28;45464;-72
2022/01/05 12:41:40;;;;;;;;;2.75;1.75;;;;;;;;5043376;28;45548;-75
2022/01/05 12:44:11;;;;;;;;;3.50;2.50;;;;;;;;5048239;28;46529;-76
2022/01/05 12:46:43;;;;;;;;;4.75;2.00;;;;;;;;5035656;28;45860;-75
2022/01/05 12:49:29;;;;;;;;;3.00;2.50;;;;;;;;5031404;28;45482;-74
2022/01/05 12:51:55;;;;;;;;;3.00;1.75;;;;;;;;5045108;28;45920;-74
2022/01/05 12:54:25;;;;;;;;;4.25;1.00;;;;;;;;5049375;28;45612;-75
2022/01/05 12:56:52;;;;;;;;;8.50;4.25;;;;;;;;5030304;28;46047;-76
2022/01/05 12:59:17;;;;;;;;;4.00;1.50;;;;;;;;5031591;28;45746;-74
2022/01/05 13:01:44;;;;;;;;;3.00;2.75;;;;;;;;5032860;28;45387;-72
2022/01/05 13:04:10;;;;;;;;;1.50;1.50;;;;;;;;5051025;28;46529;-76
2022/01/05 13:06:36;;;;;;;;;1.00;1.00;;;;;;;;5032245;28;45413;-74
2022/01/05 13:09:05;;;;;;;;;2.75;2.00;;;;;;;;5031975;28;45968;-77
2022/01/05 13:11:42;;;;;;;;;3.25;3.00;;;;;;;;5030950;28;45535;-76
2022/01/05 13:14:28;;;;;;;;;3.00;2.75;;;;;;;;5045320;28;46423;-77
2022/01/05 13:16:53;;;;;;;;;2.00;2.00;;;;;;;;5048453;28;46495;-76
2022/01/05 13:19:35;;;;;;;;;2.00;1.00;;;;;;;;5048155;28;45531;-74
2022/01/05 13:22:05;;;;;;;;;1.00;1.00;;;;;;;;5031074;28;45473;-76
2022/01/05 13:24:46;;;;;;;;;6.25;2.00;;;;;;;;5050495;28;46187;-76
2022/01/05 13:27:11;;;;;;;;;1.50;1.50;;;;;;;;5046805;28;45444;-78
2022/01/05 13:29:37;;;;;;;;;1.50;1.50;;;;;;;;5022388;28;46053;-79
2022/01/05 13:32:02;;;;;;;;;2.00;2.00;;;;;;;;5032773;28;45995;-78
2022/01/05 13:34:31;;;;;;;;;4.00;2.00;;;;;;;;5047225;28;45526;-76
2022/01/05 13:36:57;;;;;;;;;2.50;2.25;;;;;;;;5032109;28;45477;-75
2022/01/05 13:39:38;;;;;;;;;3.00;3.00;;;;;;;;5049049;28;45575;-76
2022/01/05 13:42:03;;;;;;;;;0.50;0.50;;;;;;;;5050057;28;45991;-77
2022/01/05 13:44:29;;;;;;;;;2.25;2.00;;;;;;;;5031833;28;46747;-77
2022/01/05 13:46:54;;;;;;;;;2.75;2.00;;;;;;;;5031670;28;45850;-77
2022/01/05 13:49:20;;;;;;;;;1.00;1.00;;;;;;;;5050249;28;46102;-77
2022/01/05 13:52:08;;;;;;;;;3.00;3.00;;;;;;;;5050520;28;45633;-76
2022/01/05 13:54:34;;;;;;;;;2.00;1.50;;;;;;;;5046692;28;45750;-73
2022/01/05 13:57:00;;;;;;;;;3.00;2.00;;;;;;;;5050809;28;45502;-74
2022/01/05 13:59:35;;;;;;;;;3.25;3.25;;;;;;;;5050190;28;45823;-76
2022/01/05 14:02:00;;;;;;;;;3.50;2.00;;;;;;;;5049788;28;46019;-74
2022/01/05 14:04:26;;;;;;;;;2.00;2.00;;;;;;;;5031581;28;48358;-72
2022/01/05 14:06:58;;;;;;;;;3.25;2.50;;;;;;;;5049457;28;45665;-75
2022/01/05 14:09:29;;;;;;;;;4.75;2.75;;;;;;;;5047987;28;45751;-75
2022/01/05 14:11:57;;;;;;;;;2.00;2.00;;;;;;;;5048479;28;45732;-74
2022/01/05 14:14:23;;;;;;;;;4.25;3.00;;;;;;;;5031223;28;47639;-75
2022/01/05 14:16:48;;;;;;;;;3.50;1.50;;;;;;;;5031145;28;45505;-72
2022/01/05 14:19:15;;;;;;;;;3.00;2.00;;;;;;;;5048922;28;45977;-73
2022/01/05 14:21:41;;;;;;;;;2.50;2.25;;;;;;;;5044202;28;45636;-73
2022/01/05 14:24:09;;;;;;;;;3.50;2.00;;;;;;;;5027758;28;47295;-76
2022/01/05 14:26:35;;;;;;;;;1.00;1.00;;;;;;;;5027298;28;46443;-74
2022/01/05 14:29:01;;;;;;;;;3.50;2.25;;;;;;;;5028318;28;45641;-74
2022/01/05 14:31:32;;;;;;;;;6.25;3.75;;;;;;;;5023988;28;45651;-76
2022/01/05 14:33:57;;;;;;;;;2.00;2.00;;;;;;;;5029275;28;46209;-73
2022/01/05 14:36:22;;;;;;;;;8.00;8.00;;;;;;;;5027309;28;45565;-74
2022/01/05 14:38:59;;;;;;;;;3.25;2.00;;;;;;;;5028007;28;45473;-74
2022/01/05 14:41:36;;;;;;;;;3.00;3.00;;;;;;;;5030137;28;45731;-75